Flight Track Log - Related Links

Times and Time Zones

All times are in EDT time to prevent confusion due to time zone crossing. See the TYR605 flight status page for this flight to view local times or setup timezone preferences in your user account.

Time Position Orientation Groundspeed Altitude Reporting Facility
EDT Latitude Longitude Course Direction KTS MPH feet Rate Location/Type
Tue 03:12:00 PM 48.3167 16.9821 53° Northeast  Level Estimated
Tue 03:13:00 PM 48.3851 17.1203 53° Northeast  Level Estimated
Tue 03:14:00 PM 48.4534 17.2589 53° Northeast  Level Estimated
Tue 03:15:00 PM 48.5216 17.3978 53° Northeast  Level Estimated
Tue 03:16:00 PM 48.5895 17.5372 54° Northeast  Level Estimated
Tue 03:17:00 PM 48.6573 17.6769 54° Northeast  Level Estimated
Tue 03:18:00 PM 48.7250 17.8169 54° Northeast  Level Estimated
Tue 03:19:00 PM 48.7924 17.9574 54° Northeast  Level Estimated
Tue 03:20:00 PM 48.8597 18.0982 54° Northeast  Level Estimated
Tue 03:21:00 PM 48.9268 18.2394 54° Northeast  Level Estimated
Tue 03:22:00 PM 48.9938 18.3810 54° Northeast  Level Estimated
Tue 03:23:00 PM 49.0606 18.5230 54° Northeast  Level Estimated
Tue 03:24:00 PM 49.1271 18.6653 54° Northeast  Level Estimated
Tue 03:25:00 PM 49.1936 18.8081 55° Northeast  Level Estimated
Tue 03:26:00 PM 49.2598 18.9512 55° Northeast  Level Estimated
Tue 03:27:00 PM 49.3259 19.0947 55° Northeast  Level Estimated
Tue 03:28:00 PM 49.3918 19.2386 55° Northeast  Level Estimated
Tue 03:29:00 PM 49.4575 19.3828 55° Northeast  Level Estimated
Tue 03:30:00 PM 49.5230 19.5275 55° Northeast  Level Estimated
Tue 03:31:00 PM 49.5883 19.6725 55° Northeast  Level Estimated
Tue 03:32:00 PM 49.6535 19.8179 55° Northeast  Level Estimated
Tue 03:33:00 PM 49.7185 19.9638 55° Northeast  Level Estimated
Tue 03:34:00 PM 49.7833 20.1100 55° Northeast  Level Estimated
Tue 03:35:00 PM 49.8479 20.2566 56° Northeast  Level Estimated
Tue 03:36:00 PM 49.9123 20.4036 56° Northeast  Level Estimated
Tue 03:37:00 PM 49.9766 20.5510 56° Northeast  Level Estimated
Tue 03:38:00 PM 50.0406 20.6987 56° Northeast  Level Estimated
Tue 03:39:00 PM 50.1045 20.8469 56° Northeast  Level Estimated
Tue 03:40:00 PM 50.1682 20.9955 56° Northeast  Level Estimated
Tue 03:41:00 PM 50.2317 21.1445 56° Northeast  Level Estimated
Tue 03:42:00 PM 50.2950 21.2938 56° Northeast  Level Estimated
Tue 03:43:00 PM 50.3581 21.4436 57° Northeast  Level Estimated
Tue 03:44:00 PM 50.4210 21.5938 57° Northeast  Level Estimated
Tue 03:45:00 PM 50.4837 21.7443 57° Northeast  Level Estimated
Tue 03:46:00 PM 50.5462 21.8953 57° Northeast  Level Estimated
Tue 03:47:00 PM 50.6086 22.0466 57° Northeast  Level Estimated
Tue 03:48:00 PM 50.6707 22.1984 57° Northeast  Level Estimated
Tue 03:49:00 PM 50.7326 22.3505 57° Northeast  Level Estimated
Tue 03:50:00 PM 50.7944 22.5031 57° Northeast  Level Estimated
Tue 03:51:00 PM 50.8559 22.6561 57° Northeast  Level Estimated
Tue 03:52:00 PM 50.9173 22.8095 58° Northeast  Level Estimated
Tue 03:53:00 PM 50.9784 22.9632 58° Northeast  Level Estimated
Tue 03:54:00 PM 51.0393 23.1174 58° Northeast  Level Estimated
Tue 03:55:00 PM 51.1000 23.2720 58° Northeast  Level Estimated
Tue 03:56:00 PM 51.1606 23.4270 58° Northeast  Level Estimated
Tue 03:57:00 PM 51.2209 23.5824 58° Northeast  Level Estimated
Tue 03:58:00 PM 51.2810 23.7382 58° Northeast  Level Estimated
Tue 03:59:00 PM 51.3409 23.8944 58° Northeast  Level Estimated
Tue 04:00:00 PM 51.4006 24.0510 59° Northeast  Level Estimated
Tue 04:01:00 PM 51.4601 24.2080 59° Northeast  Level Estimated
Tue 04:02:00 PM 51.5194 24.3655 59° Northeast  Level Estimated
Tue 04:03:00 PM 51.5784 24.5233 59° Northeast  Level Estimated
Tue 04:04:00 PM 51.6373 24.6816 59° Northeast  Level Estimated
Tue 04:05:00 PM 51.6959 24.8403 59° Northeast  Level Estimated
Tue 04:06:00 PM 51.7544 24.9993 59° Northeast  Level Estimated
Tue 04:07:00 PM 51.8126 25.1588 59° Northeast  Level Estimated
Tue 04:08:00 PM 51.8706 25.3187 60° Northeast  Level Estimated
Tue 04:09:00 PM 51.9283 25.4790 60° Northeast  Level Estimated
Tue 04:10:00 PM 51.9859 25.6398 60° Northeast  Level Estimated
Tue 04:11:00 PM 52.0433 25.8009 60° Northeast  Level Estimated
Tue 04:12:00 PM 52.1004 25.9625 60° Northeast  Level Estimated
Tue 04:13:00 PM 52.1573 26.1244 60° Northeast  Level Estimated
Tue 04:14:00 PM 52.2140 26.2868 60° Northeast  Level Estimated
Tue 04:15:00 PM 52.2704 26.4496 60° Northeast  Level Estimated
Tue 04:16:00 PM 52.3266 26.6128 61° Northeast  Level Estimated
Tue 04:17:00 PM 52.3826 26.7764 61° Northeast  Level Estimated
Tue 04:18:00 PM 52.4384 26.9405 61° Northeast  Level Estimated
Tue 04:19:00 PM 52.4940 27.1049 61° Northeast  Level Estimated
Tue 04:20:00 PM 52.5493 27.2698 61° Northeast  Level Estimated
Tue 04:21:00 PM 52.6044 27.4351 61° Northeast  Level Estimated
Tue 04:22:00 PM 52.6592 27.6008 61° Northeast  Level Estimated
Tue 04:23:00 PM 52.7139 27.7669 61° Northeast  Level Estimated
Tue 04:24:00 PM 52.7683 27.9334 62° Northeast  Level Estimated
Tue 04:25:00 PM 52.8224 28.1003 62° Northeast  Level Estimated
Tue 04:26:00 PM 52.8764 28.2677 62° Northeast  Level Estimated
Tue 04:27:00 PM 52.9300 28.4355 62° Northeast  Level Estimated
Tue 04:28:00 PM 52.9835 28.6037 62° Northeast  Level Estimated
Tue 04:29:00 PM 53.0367 28.7723 62° Northeast  Level Estimated
Tue 04:30:00 PM 53.0897 28.9413 62° Northeast  Level Estimated
Tue 04:31:00 PM 53.1424 29.1107 63° Northeast  Level Estimated
Tue 04:32:00 PM 53.1949 29.2806 63° Northeast  Level Estimated
Tue 04:33:00 PM 53.2472 29.4509 63° Northeast  Level Estimated
Tue 04:34:00 PM 53.2992 29.6216 63° Northeast  Level Estimated
Tue 04:35:00 PM 53.3510 29.7927 63° Northeast  Level Estimated
Tue 04:36:00 PM 53.4025 29.9642 63° Northeast  Level Estimated
Tue 04:37:00 PM 53.4538 30.1361 63° Northeast  Level Estimated
Tue 04:38:00 PM 53.5048 30.3085 63° Northeast  Level Estimated
Tue 04:39:00 PM 53.5556 30.4812 64° Northeast  Level Estimated
Tue 04:40:00 PM 53.6061 30.6544 64° Northeast  Level Estimated
Tue 04:41:00 PM 53.6564 30.8280 64° Northeast  Level Estimated
Tue 04:42:00 PM 53.7064 31.0020 64° Northeast  Level Estimated
Tue 04:43:00 PM 53.7562 31.1764 64° Northeast  Level Estimated
Tue 04:44:00 PM 53.8057 31.3512 64° Northeast  Level Estimated
Tue 04:45:00 PM 53.8550 31.5265 64° Northeast  Level Estimated
Tue 04:46:00 PM 53.9040 31.7021 65° Northeast  Level Estimated
Tue 04:47:00 PM 53.9527 31.8782 65° Northeast  Level Estimated
Tue 04:48:00 PM 54.0012 32.0547 65° Northeast  Level Estimated
Tue 04:49:00 PM 54.0495 32.2315 65° Northeast  Level Estimated
Tue 04:50:00 PM 54.0975 32.4089 65° Northeast  Level Estimated
Tue 04:51:00 PM 54.1452 32.5866 65° Northeast  Level Estimated
Tue 04:52:00 PM 54.1926 32.7647 65° Northeast  Level Estimated
Tue 04:53:00 PM 54.2398 32.9432 66° East  Level Estimated
Tue 04:54:00 PM 54.2867 33.1221 66° East  Level Estimated
Tue 04:55:00 PM 54.3334 33.3015 66° East  Level Estimated
Tue 04:56:00 PM 54.3798 33.4812 66° East  Level Estimated
Tue 04:57:00 PM 54.4259 33.6614 66° East  Level Estimated
Tue 04:58:00 PM 54.4718 33.8419 66° East  Level Estimated
Tue 04:59:00 PM 54.5173 34.0229 66° East  Level Estimated
Tue 05:00:00 PM 54.5627 34.2042 67° East  Level Estimated
Tue 05:01:00 PM 54.6077 34.3860 67° East  Level Estimated
Tue 05:02:00 PM 54.6525 34.5681 67° East  Level Estimated
Tue 05:03:00 PM 54.6970 34.7507 67° East  Level Estimated
Tue 05:04:00 PM 54.7412 34.9337 67° East  Level Estimated
Tue 05:05:00 PM 54.7851 35.1171 67° East  Level Estimated
Tue 05:06:00 PM 54.8288 35.3008 68° East  Level Estimated
Tue 05:07:00 PM 54.8722 35.4850 68° East  Level Estimated
Tue 05:08:00 PM 54.9153 35.6695 68° East  Level Estimated
Tue 05:09:00 PM 54.9581 35.8545 68° East  Level Estimated
Tue 05:10:00 PM 55.0007 36.0398 68° East  Level Estimated
Tue 05:11:00 PM 55.0430 36.2255 68° East  Level Estimated
Tue 05:12:00 PM 55.0850 36.4117 68° East  Level Estimated
Tue 05:13:00 PM 55.1267 36.5982 69° East  Level Estimated
Tue 05:14:00 PM 55.1681 36.7851 69° East  Level Estimated
Tue 05:15:00 PM 55.2092 36.9724 69° East  Level Estimated
Tue 05:16:00 PM 55.2500 37.1601 69° East  Level Estimated
Tue 05:17:00 PM 55.2906 37.3481 69° East  Level Estimated
Tue 05:18:00 PM 55.3309 37.5366 69° East  Level Estimated
Tue 05:19:00 PM 55.3708 37.7254 69° East  Level Estimated
Tue 05:20:00 PM 55.4088 37.9063 70° East  Level Estimated
Tue 05:21:00 PM 55.4088 37.9063 150° Southeast  Level Estimated
Tue 05:22:00 PM 55.4088 37.9063 150° Southeast  Level Estimated
Tue 05:23:00 PM 55.4088 37.9063 150° Southeast  Level Estimated
Tue 05:24:00 PM 55.4088 37.9063 150° Southeast  Level Estimated
Tue 05:25:00 PM 55.4088 37.9063 150° Southeast  Level Estimated
Tue 05:26:00 PM 55.4088 37.9063 150° Southeast  Level Estimated
Tue 05:27:00 PM 55.4088 37.9063 150° Southeast  Level Estimated
Tue 05:28:00 PM 55.4088 37.9063 150° Southeast  Level Estimated
Tue 05:29:00 PM 55.4088 37.9063 150° Southeast  Level Estimated
Tue 05:30:00 PM 55.4088 37.9063 150° Southeast  Level Estimated
Tue 05:31:00 PM 55.4088 37.9063 150° Southeast  Level Estimated
Tue 05:32:00 PM 55.4088 37.9063 150° Southeast  Level Estimated
Tue 05:33:00 PM 55.4088 37.9063 150° Southeast  Level Estimated
Tue 05:34:00 PM 55.4088 37.9063 150° Southeast  Level Estimated
Tue 05:35:00 PM 55.4088 37.9063 150° Southeast  Level Estimated
Tue 05:36:00 PM 55.4088 37.9063 150° Southeast  Level Estimated

Login

Don't have an account? Register now (free) for customized features, flight alerts, and more!